Time;durP1;ratioP1;P1;durP2;ratioP2;P2;SDS_P1;SDS_P2;PMS_P1;PMS_P2;Temp;Humidity;BMP_temperature;BMP_pressure;BME280_temperature;BME280_humidity;BME280_pressure;Samples;Min_cycle;Max_cycle;Signal;HPM_P1;HPM_P2
2023/04/27 00:00:52;;;;;;;;;19.50;17.25;;;;;14.30;49.88;101245.41;5060949;28;46087;-61
2023/04/27 00:03:17;;;;;;;;;14.25;11.75;;;;;14.28;50.00;101252.53;5061098;28;46307;-61
2023/04/27 00:05:43;;;;;;;;;13.50;13.50;;;;;14.28;50.13;101253.38;5060763;28;45334;-61
2023/04/27 00:08:08;;;;;;;;;16.25;15.00;;;;;14.29;50.18;101257.78;5060969;28;45283;-61
2023/04/27 00:10:34;;;;;;;;;13.00;11.00;;;;;14.29;50.12;101262.19;5042618;28;45804;-61
2023/04/27 00:13:00;;;;;;;;;18.00;14.00;;;;;14.28;50.36;101261.31;5060139;28;45387;-61
2023/04/27 00:15:25;;;;;;;;;15.75;15.75;;;;;14.29;50.48;101265.69;5041738;28;45411;-61
2023/04/27 00:17:51;;;;;;;;;19.75;16.75;;;;;14.28;50.49;101257.81;5026128;28;45453;-61
2023/04/27 00:20:17;;;;;;;;;13.50;12.25;;;;;14.29;50.63;101254.28;5060768;28;45446;-61
2023/04/27 00:22:43;;;;;;;;;17.75;14.50;;;;;14.27;50.17;101254.28;5059320;28;47575;-61
2023/04/27 00:25:08;;;;;;;;;16.75;13.75;;;;;14.24;50.14;101241.13;5042418;28;45898;-61
2023/04/27 00:27:33;;;;;;;;;17.25;16.75;;;;;14.25;50.07;101247.28;5060807;28;45777;-61
2023/04/27 00:29:59;;;;;;;;;17.75;14.50;;;;;14.24;50.61;101243.78;5060463;28;48862;-61
2023/04/27 00:32:24;;;;;;;;;15.75;14.75;;;;;14.26;50.47;101238.44;5060559;28;45201;-61
2023/04/27 00:34:50;;;;;;;;;17.75;16.00;;;;;14.25;50.37;101232.31;5060413;28;45181;-61
2023/04/27 00:37:15;;;;;;;;;15.25;14.00;;;;;14.25;50.65;101237.59;5060546;28;45337;-61
2023/04/27 00:39:41;;;;;;;;;20.25;15.00;;;;;14.25;50.60;101231.41;5060050;28;45380;-61
2023/04/27 00:42:10;;;;;;;;;15.75;14.00;;;;;14.23;50.68;101230.59;5060403;28;45319;-61
2023/04/27 00:44:35;;;;;;;;;16.75;15.00;;;;;14.22;50.18;101235.00;5059861;28;45393;-62
2023/04/27 00:47:01;;;;;;;;;16.50;14.25;;;;;14.24;50.60;101232.34;5060434;28;45547;-61
2023/04/27 00:49:26;;;;;;;;;15.00;12.25;;;;;14.21;50.51;101222.69;5042224;28;45360;-61
2023/04/27 00:51:52;;;;;;;;;18.00;15.50;;;;;14.23;50.34;101228.81;5058937;28;48308;-61
2023/04/27 00:54:21;;;;;;;;;20.00;18.00;;;;;14.23;50.27;101226.19;5059897;28;45258;-61
2023/04/27 00:56:50;;;;;;;;;15.50;13.50;;;;;14.21;50.72;101221.81;5060361;28;45404;-61
2023/04/27 00:59:17;;;;;;;;;17.00;16.50;;;;;14.21;50.65;101225.31;5041265;28;45360;-61
2023/04/27 01:01:42;;;;;;;;;19.00;16.75;;;;;14.22;50.71;101228.84;5058616;28;45242;-61
2023/04/27 01:04:08;;;;;;;;;13.50;13.00;;;;;14.18;50.32;101217.47;5058387;28;45221;-61
2023/04/27 01:06:33;;;;;;;;;15.00;13.75;;;;;14.17;50.40;101215.72;5047882;28;45396;-61
2023/04/27 01:08:59;;;;;;;;;19.00;17.75;;;;;14.13;50.38;101209.63;5059245;28;45309;-61
2023/04/27 01:11:24;;;;;;;;;13.75;13.00;;;;;14.19;50.48;101224.50;5059011;28;45601;-61
2023/04/27 01:13:50;;;;;;;;;17.00;15.25;;;;;14.18;50.23;101221.91;5059967;28;45245;-61
2023/04/27 01:16:18;;;;;;;;;17.25;15.75;;;;;14.14;50.60;101210.53;5060042;28;45249;-61
2023/04/27 01:18:44;;;;;;;;;18.25;15.50;;;;;14.16;50.31;101221.91;5041839;28;45419;-61
2023/04/27 01:21:10;;;;;;;;;19.25;16.75;;;;;14.15;50.67;101222.84;5059720;28;45897;-61
2023/04/27 01:23:35;;;;;;;;;18.75;17.75;;;;;14.16;50.93;101232.50;5059617;28;45313;-61
2023/04/27 01:26:01;;;;;;;;;19.00;18.00;;;;;14.14;50.63;101232.53;5062682;28;45947;-61
2023/04/27 01:28:26;;;;;;;;;16.00;14.75;;;;;14.14;50.75;101236.97;5063396;28;45398;-61
2023/04/27 01:30:51;;;;;;;;;17.50;14.75;;;;;14.11;50.67;101231.72;5063228;28;50331;-61
2023/04/27 01:33:17;;;;;;;;;9.25;6.75;;;;;14.13;50.79;101237.84;5063353;28;45278;-61
2023/04/27 01:35:42;;;;;;;;;16.50;11.75;;;;;14.10;50.69;101228.22;5063701;28;45229;-61
2023/04/27 01:38:07;;;;;;;;;17.00;15.25;;;;;14.09;50.53;101230.91;5062909;28;45216;-61
2023/04/27 01:40:33;;;;;;;;;15.50;13.25;;;;;14.10;50.73;101237.91;5063107;28;45170;-61
2023/04/27 01:42:58;;;;;;;;;18.00;17.00;;;;;14.08;50.94;101230.00;5063225;28;45195;-61
2023/04/27 01:45:23;;;;;;;;;17.50;15.50;;;;;14.08;50.51;101223.88;5045337;28;45224;-61
2023/04/27 01:47:52;;;;;;;;;17.25;14.75;;;;;14.04;50.83;101220.41;5063305;28;45442;-61
2023/04/27 01:50:18;;;;;;;;;14.50;14.50;;;;;14.02;50.97;101210.78;5063072;28;45339;-61
2023/04/27 01:52:43;;;;;;;;;19.50;17.25;;;;;14.05;50.59;101214.25;5062729;28;45412;-61
2023/04/27 01:55:08;;;;;;;;;18.50;16.50;;;;;14.03;50.89;101204.59;5044656;28;52977;-61
2023/04/27 01:57:34;;;;;;;;;14.75;13.50;;;;;14.04;50.98;101203.72;5062994;28;45429;-61
2023/04/27 01:59:59;;;;;;;;;17.00;14.00;;;;;14.02;50.86;101208.16;5062826;28;46090;-61
2023/04/27 02:02:24;;;;;;;;;14.75;14.75;;;;;14.03;51.11;101204.59;5044758;28;45268;-61
2023/04/27 02:04:50;;;;;;;;;14.00;12.50;;;;;13.95;51.06;101191.56;5063120;28;45296;-61
2023/04/27 02:07:15;;;;;;;;;16.25;12.50;;;;;13.99;50.66;101201.16;5062632;28;45470;-61
2023/04/27 02:09:40;;;;;;;;;16.00;15.25;;;;;14.00;51.20;101202.00;5061181;28;46575;-61
2023/04/27 02:12:06;;;;;;;;;17.75;16.75;;;;;13.98;50.90;101205.56;5044614;28;45340;-61
2023/04/27 02:14:31;;;;;;;;;16.75;13.75;;;;;13.96;50.85;101204.72;5062786;28;45405;-61
2023/04/27 02:16:57;;;;;;;;;15.25;15.00;;;;;13.96;50.71;101207.38;5062855;28;45304;-61
2023/04/27 02:19:22;;;;;;;;;17.00;15.25;;;;;13.95;50.60;101195.06;5062226;28;55963;-62
2023/04/27 02:21:47;;;;;;;;;14.50;14.00;;;;;13.95;50.97;101200.34;5062933;28;45350;-61
2023/04/27 02:24:13;;;;;;;;;16.50;13.00;;;;;13.93;50.67;101202.13;5062385;28;45223;-61
2023/04/27 02:26:38;;;;;;;;;18.00;15.75;;;;;13.90;50.81;101193.41;5044415;28;45573;-61
2023/04/27 02:29:03;;;;;;;;;16.00;13.50;;;;;13.92;51.17;101200.41;5062182;28;49289;-62
2023/04/27 02:31:29;;;;;;;;;18.00;16.25;;;;;13.91;51.05;101200.44;5062637;28;45238;-62
2023/04/27 02:33:55;;;;;;;;;18.25;17.50;;;;;13.90;51.37;101206.59;5062507;28;45154;-61
2023/04/27 02:36:20;;;;;;;;;19.75;16.50;;;;;13.89;51.13;101211.03;5061642;28;45486;-62
2023/04/27 02:38:45;;;;;;;;;18.50;17.50;;;;;13.89;51.10;101208.41;5061605;28;45280;-62
2023/04/27 02:41:11;;;;;;;;;17.75;15.50;;;;;13.89;50.98;101211.03;5062278;28;45304;-62
2023/04/27 02:43:36;;;;;;;;;18.25;17.50;;;;;13.88;51.11;101214.56;5062326;28;45344;-61
2023/04/27 02:46:03;;;;;;;;;17.00;14.75;;;;;13.89;50.92;101205.75;5062328;28;45262;-61
2023/04/27 02:48:29;;;;;;;;;15.50;15.50;;;;;13.87;51.31;101202.25;5062088;28;45301;-61
2023/04/27 02:50:56;;;;;;;;;16.50;15.25;;;;;13.87;50.83;101206.69;5062102;28;45340;-62
2023/04/27 02:53:21;;;;;;;;;19.25;16.00;;;;;13.86;51.09;101211.13;5061890;28;45317;-62
2023/04/27 02:55:49;;;;;;;;;18.00;16.00;;;;;13.87;50.99;101211.97;5062048;28;45467;-62
2023/04/27 02:58:15;;;;;;;;;21.25;17.75;;;;;13.86;51.29;101210.22;5061872;28;46297;-61
2023/04/27 03:00:41;;;;;;;;;15.50;13.75;;;;;13.85;51.04;101212.00;5061914;28;45231;-61
2023/04/27 03:03:07;;;;;;;;;17.75;17.00;;;;;13.84;51.00;101212.03;5062048;28;45170;-62
2023/04/27 03:05:32;;;;;;;;;16.25;16.25;;;;;13.84;51.38;101214.69;5061864;28;45296;-62
2023/04/27 03:07:58;;;;;;;;;19.25;18.50;;;;;13.84;51.34;101218.19;5043620;28;45355;-62
2023/04/27 03:10:24;;;;;;;;;21.00;19.50;;;;;13.83;51.38;101213.81;5043628;28;45479;-62
2023/04/27 03:12:49;;;;;;;;;20.25;18.75;;;;;13.81;51.14;101208.56;5061840;28;45411;-62
2023/04/27 03:15:14;;;;;;;;;19.25;13.25;;;;;13.81;51.32;101212.94;5043914;28;45360;-61
2023/04/27 03:17:40;;;;;;;;;16.50;14.75;;;;;13.83;51.30;101205.88;5060249;28;45597;-62
2023/04/27 03:20:08;;;;;;;;;18.50;17.00;;;;;13.80;51.09;101208.59;5061660;28;45304;-64
2023/04/27 03:22:34;;;;;;;;;18.00;15.75;;;;;13.81;51.69;101207.66;5061457;28;45391;-64
2023/04/27 03:25:00;;;;;;;;;17.25;14.75;;;;;13.78;51.06;101205.97;5061448;28;45290;-62
2023/04/27 03:27:25;;;;;;;;;19.50;15.00;;;;;13.81;51.46;101213.84;5043177;28;47245;-62
2023/04/27 03:29:54;;;;;;;;;19.00;16.00;;;;;13.80;51.37;101220.03;5043373;28;51510;-62
2023/04/27 03:32:19;;;;;;;;;16.25;13.50;;;;;13.81;51.61;101218.22;5043344;28;45284;-62
2023/04/27 03:34:45;;;;;;;;;12.75;12.00;;;;;13.80;51.46;101220.03;5061471;28;45634;-62
2023/04/27 03:37:10;;;;;;;;;18.00;14.75;;;;;13.77;51.49;101216.56;5060458;28;45308;-61
2023/04/27 03:39:35;;;;;;;;;18.00;15.75;;;;;13.80;51.21;101224.44;5043054;28;46249;-61
2023/04/27 03:42:01;;;;;;;;;17.25;14.25;;;;;13.78;51.48;101220.94;5061463;28;45249;-61
2023/04/27 03:44:26;;;;;;;;;16.50;16.25;;;;;13.74;51.41;101217.50;5043239;28;45599;-61
2023/04/27 03:46:52;;;;;;;;;18.75;16.25;;;;;13.76;51.94;101223.63;5061090;28;45264;-61
2023/04/27 03:49:17;;;;;;;;;20.25;17.25;;;;;13.76;51.89;101218.34;5060047;28;45216;-62
2023/04/27 03:51:43;;;;;;;;;18.50;17.00;;;;;13.74;51.43;101214.84;5061417;28;45356;-62
2023/04/27 03:54:08;;;;;;;;;22.50;19.00;;;;;13.74;51.59;101214.00;5060808;28;45254;-62
2023/04/27 03:56:34;;;;;;;;;15.75;15.75;;;;;13.75;51.83;101213.97;5042730;28;46947;-62
2023/04/27 03:59:00;;;;;;;;;17.25;14.25;;;;;13.76;51.79;101214.81;5060526;28;45233;-62
2023/04/27 04:01:25;;;;;;;;;14.75;14.00;;;;;13.73;51.60;101204.31;5061164;28;45415;-62
2023/04/27 04:03:50;;;;;;;;;20.50;18.00;;;;;13.74;51.91;101206.94;5061006;28;45214;-62
2023/04/27 04:06:16;;;;;;;;;19.00;17.75;;;;;13.73;51.75;101206.97;5060500;28;46191;-62
2023/04/27 04:08:41;;;;;;;;;17.75;17.75;;;;;13.68;51.54;101212.31;5060720;28;45333;-61
2023/04/27 04:11:06;;;;;;;;;17.50;17.00;;;;;13.71;51.71;101206.13;5060892;28;45250;-61
2023/04/27 04:13:32;;;;;;;;;16.00;15.75;;;;;13.71;51.90;101214.03;5042996;28;45675;-61
2023/04/27 04:16:06;;;;;;;;;17.25;16.25;;;;;13.69;52.00;101203.50;5060573;28;46029;-61
2023/04/27 04:18:32;;;;;;;;;18.50;15.75;;;;;13.71;51.49;101214.03;5060571;28;45237;-62
2023/04/27 04:20:57;;;;;;;;;15.75;15.75;;;;;13.67;51.89;101205.31;5059251;28;45458;-61
2023/04/27 04:23:23;;;;;;;;;17.50;14.75;;;;;13.65;51.90;101200.06;5042493;28;45486;-62
2023/04/27 04:25:48;;;;;;;;;24.00;18.50;;;;;13.65;52.03;101207.97;5060399;28;45369;-62
2023/04/27 04:28:14;;;;;;;;;23.25;19.75;;;;;13.65;52.02;101215.03;5060654;28;45455;-61
2023/04/27 04:30:39;;;;;;;;;19.50;18.50;;;;;13.62;51.71;101207.16;5042596;28;45364;-62
2023/04/27 04:33:05;;;;;;;;;27.25;25.75;;;;;13.61;51.88;101213.34;5060524;28;45540;-62
2023/04/27 04:35:33;;;;;;;;;43.50;34.50;;;;;13.62;51.75;101218.63;5042323;28;46149;-62
2023/04/27 04:37:59;;;;;;;;;19.75;17.50;;;;;13.61;52.08;101218.63;5060063;28;45312;-61
2023/04/27 04:40:25;;;;;;;;;18.50;18.50;;;;;13.57;52.00;101211.66;5060270;28;45290;-62
2023/04/27 04:42:51;;;;;;;;;18.25;17.50;;;;;13.59;52.18;101217.81;5060459;28;45434;-61
2023/04/27 04:45:17;;;;;;;;;21.00;18.25;;;;;13.58;51.75;101211.63;5060440;28;45621;-62
2023/04/27 04:47:42;;;;;;;;;17.50;16.50;;;;;13.51;51.99;101204.75;5060574;28;45736;-62
2023/04/27 04:50:11;;;;;;;;;18.00;16.75;;;;;13.55;52.37;101213.50;5060444;28;45363;-61
2023/04/27 04:52:37;;;;;;;;;16.25;14.75;;;;;13.53;52.24;101208.22;5060204;28;45486;-62
2023/04/27 04:55:03;;;;;;;;;17.75;17.75;;;;;13.54;51.84;101211.75;5059919;28;45840;-61
2023/04/27 04:57:29;;;;;;;;;19.50;16.25;;;;;13.51;51.94;101210.03;5060343;28;45240;-62
2023/04/27 04:59:55;;;;;;;;;21.00;18.25;;;;;13.53;52.12;101218.78;5059407;28;45442;-62
2023/04/27 05:02:20;;;;;;;;;79.25;62.25;;;;;13.52;52.23;101217.06;5060215;28;45511;-62
2023/04/27 05:04:46;;;;;;;;;119.25;99.00;;;;;13.49;52.00;101215.31;5042079;28;45972;-61
2023/04/27 05:07:11;;;;;;;;;16.25;16.25;;;;;13.49;52.23;101207.41;5059814;28;45437;-61
2023/04/27 05:09:37;;;;;;;;;21.75;17.25;;;;;13.49;52.16;101212.69;5059494;28;45490;-61
2023/04/27 05:12:02;;;;;;;;;20.25;16.75;;;;;13.48;52.13;101213.59;5060110;28;45335;-62
2023/04/27 05:14:28;;;;;;;;;21.50;20.00;;;;;13.47;52.21;101217.13;5059927;28;45304;-62
2023/04/27 05:16:53;;;;;;;;;21.25;18.25;;;;;13.47;51.93;101210.97;5059883;28;45430;-62
2023/04/27 05:19:19;;;;;;;;;19.25;18.50;;;;;13.46;52.03;101215.38;5060008;28;45504;-62
2023/04/27 05:21:45;;;;;;;;;21.00;19.75;;;;;13.44;52.06;101218.97;5059803;28;45426;-62
2023/04/27 05:24:11;;;;;;;;;17.75;16.25;;;;;13.47;52.02;101216.25;5059372;28;45349;-62
2023/04/27 05:26:37;;;;;;;;;16.75;15.75;;;;;13.48;52.36;101223.28;5059912;28;45328;-62
2023/04/27 05:29:02;;;;;;;;;21.50;19.50;;;;;13.47;52.39;101221.53;5059842;28;45240;-62
2023/04/27 05:31:28;;;;;;;;;19.50;17.50;;;;;13.47;52.45;101224.16;5059862;28;45222;-62
2023/04/27 05:33:53;;;;;;;;;21.25;19.00;;;;;13.48;52.13;101236.47;5059660;28;45206;-62
2023/04/27 05:36:18;;;;;;;;;21.75;20.50;;;;;13.45;52.36;101218.91;5059366;28;53158;-61
2023/04/27 05:38:44;;;;;;;;;19.25;18.25;;;;;13.40;52.48;101218.13;5041323;28;45243;-61
2023/04/27 05:41:09;;;;;;;;;18.50;17.00;;;;;13.45;52.30;101215.44;5041511;28;45224;-61
2023/04/27 05:43:36;;;;;;;;;21.00;19.50;;;;;13.46;52.63;101214.53;5041476;28;46133;-61
2023/04/27 05:46:02;;;;;;;;;24.25;19.00;;;;;13.47;52.53;101214.50;5059665;28;45151;-62
2023/04/27 05:48:27;;;;;;;;;23.25;20.25;;;;;13.45;52.55;101215.44;5059493;28;45410;-62
2023/04/27 05:51:02;;;;;;;;;22.25;20.00;;;;;13.49;52.41;101220.59;5059540;28;45436;-62
2023/04/27 05:53:29;;;;;;;;;22.25;19.75;;;;;13.48;52.32;101216.25;5059278;28;46510;-61
2023/04/27 05:55:55;;;;;;;;;20.00;18.75;;;;;13.48;52.47;101215.34;5041065;28;45269;-62
2023/04/27 05:58:21;;;;;;;;;21.00;20.00;;;;;13.48;52.56;101213.59;5059447;28;45329;-61
2023/04/27 06:00:46;;;;;;;;;23.50;19.00;;;;;13.48;52.55;101213.59;5059076;28;45463;-62
2023/04/27 06:03:11;;;;;;;;;20.50;20.00;;;;;13.49;52.36;101212.69;5059444;28;45406;-62
2023/04/27 06:05:37;;;;;;;;;18.00;15.50;;;;;13.52;52.75;101217.06;5059192;28;45317;-62
2023/04/27 06:08:02;;;;;;;;;20.75;18.75;;;;;13.54;52.36;101219.66;5059162;28;45225;-63
2023/04/27 06:10:27;;;;;;;;;23.25;22.25;;;;;13.54;52.33;101222.31;5059085;28;45241;-62
2023/04/27 06:12:53;;;;;;;;;20.75;20.75;;;;;13.54;52.54;101220.53;5061865;28;46289;-61
2023/04/27 06:15:18;;;;;;;;;20.75;16.00;;;;;13.54;52.73;101215.25;5062582;28;45236;-61
2023/04/27 06:17:44;;;;;;;;;18.75;17.50;;;;;13.58;52.83;101222.19;5062570;28;45178;-62
2023/04/27 06:20:10;;;;;;;;;21.75;19.75;;;;;13.56;52.76;101215.19;5062522;28;45237;-62
2023/04/27 06:22:36;;;;;;;;;20.25;19.75;;;;;13.60;52.79;101220.41;5044063;28;45281;-62
2023/04/27 06:25:03;;;;;;;;;19.50;19.50;;;;;13.60;52.18;101228.31;5062432;28;45708;-62
2023/04/27 06:27:28;;;;;;;;;19.50;17.50;;;;;13.63;52.63;101228.28;5044415;28;45430;-62
2023/04/27 06:29:53;;;;;;;;;17.50;17.00;;;;;13.63;52.58;101220.38;5062324;28;45498;-62
2023/04/27 06:32:19;;;;;;;;;23.00;17.50;;;;;13.67;52.51;101215.00;5043913;28;53793;-62
2023/04/27 06:34:45;;;;;;;;;20.25;17.75;;;;;13.72;52.24;101218.44;5062461;28;45395;-62
2023/04/27 06:37:11;;;;;;;;;18.50;17.00;;;;;13.74;52.74;101219.28;5062177;28;45431;-62
2023/04/27 06:39:36;;;;;;;;;19.00;15.75;;;;;13.77;52.38;101216.56;5061719;28;45308;-62
2023/04/27 06:42:03;;;;;;;;;17.00;15.75;;;;;13.78;52.36;101210.38;5062123;28;45421;-62
2023/04/27 06:44:28;;;;;;;;;16.25;15.25;;;;;13.84;52.58;101219.97;5062285;28;45316;-62
2023/04/27 06:46:54;;;;;;;;;16.75;13.75;;;;;13.87;52.41;101219.91;5062056;28;45231;-62
2023/04/27 06:49:20;;;;;;;;;15.25;15.00;;;;;13.89;52.60;101226.88;5062222;28;45542;-62
2023/04/27 06:51:45;;;;;;;;;13.50;13.50;;;;;13.91;52.34;101233.03;5061925;28;45895;-62
2023/04/27 06:54:11;;;;;;;;;15.25;13.50;;;;;13.93;52.35;101239.13;5043649;28;45360;-62
2023/04/27 06:56:36;;;;;;;;;16.00;13.00;;;;;13.98;52.09;101234.63;5061960;28;45249;-62
2023/04/27 06:59:02;;;;;;;;;17.00;14.00;;;;;14.01;52.19;101232.81;5043894;28;45638;-62
2023/04/27 07:01:27;;;;;;;;;13.75;12.75;;;;;14.01;51.95;101228.38;5061843;28;46147;-61
2023/04/27 07:03:52;;;;;;;;;13.00;13.00;;;;;14.05;51.92;101230.09;5061965;28;45329;-62
2023/04/27 07:06:18;;;;;;;;;10.75;10.00;;;;;14.05;51.75;101216.88;5061536;28;45461;-61
2023/04/27 07:08:43;;;;;;;;;13.00;11.25;;;;;14.08;51.61;101215.94;5061638;28;45509;-62
2023/04/27 07:11:08;;;;;;;;;16.00;13.00;;;;;14.13;52.07;101222.84;5061597;28;45408;-61
2023/04/27 07:13:34;;;;;;;;;13.50;13.50;;;;;14.17;51.60;101233.38;5061840;28;45324;-61
2023/04/27 07:16:00;;;;;;;;;14.25;12.00;;;;;14.19;51.41;101224.50;5061763;28;45686;-61
2023/04/27 07:18:27;;;;;;;;;10.00;10.00;;;;;14.22;51.56;101228.84;5061717;28;45361;-61
2023/04/27 07:20:53;;;;;;;;;14.00;11.75;;;;;14.24;51.50;101227.06;5061473;28;45279;-61
2023/04/27 07:23:18;;;;;;;;;12.25;11.50;;;;;14.27;51.78;101219.91;5061116;28;45382;-62
2023/04/27 07:25:45;;;;;;;;;8.00;8.00;;;;;14.30;51.80;101209.28;5061574;28;45419;-62
2023/04/27 07:28:10;;;;;;;;;11.00;10.50;;;;;14.34;51.58;101211.84;5061423;28;45157;-62
2023/04/27 07:30:36;;;;;;;;;12.50;11.00;;;;;14.32;51.13;101203.97;5061108;28;46471;-62
2023/04/27 07:33:02;;;;;;;;;12.00;10.50;;;;;14.37;51.25;101202.06;5061627;28;45411;-62
2023/04/27 07:35:27;;;;;;;;;12.75;12.50;;;;;14.39;51.46;101197.63;5061574;28;45225;-62
2023/04/27 07:37:52;;;;;;;;;12.50;11.75;;;;;14.44;51.52;101205.47;5060992;28;45482;-62
2023/04/27 07:40:18;;;;;;;;;13.75;12.75;;;;;14.44;51.46;101202.81;5042271;28;61085;-62
2023/04/27 07:42:45;;;;;;;;;10.00;10.00;;;;;14.46;50.94;101211.56;5061580;28;45307;-62
2023/04/27 07:45:11;;;;;;;;;13.00;10.25;;;;;14.54;51.10;101208.75;5061214;28;45282;-62
2023/04/27 07:47:37;;;;;;;;;11.50;9.00;;;;;14.54;51.09;101212.28;5061318;28;45379;-61
2023/04/27 07:50:05;;;;;;;;;10.00;10.00;;;;;14.58;51.22;101211.28;5060781;28;45427;-62
2023/04/27 07:52:30;;;;;;;;;15.25;10.50;;;;;14.59;50.71;101213.03;5059622;28;45261;-62
2023/04/27 07:54:56;;;;;;;;;16.00;11.50;;;;;14.64;50.88;101210.28;5060918;28;45388;-62
2023/04/27 07:57:21;;;;;;;;;12.50;11.25;;;;;14.71;51.15;101216.34;5043445;28;45355;-62
2023/04/27 07:59:46;;;;;;;;;9.25;9.25;;;;;14.73;50.94;101207.44;5060798;28;45276;-62
2023/04/27 08:02:12;;;;;;;;;13.75;10.00;;;;;14.80;50.78;101210.81;5060987;28;48120;-62
2023/04/27 08:04:37;;;;;;;;;11.50;11.50;;;;;14.82;51.05;101208.13;5061192;28;45428;-62
2023/04/27 08:07:02;;;;;;;;;11.75;11.00;;;;;14.87;50.24;101212.41;5060736;28;45327;-62
2023/04/27 08:09:28;;;;;;;;;10.00;8.25;;;;;14.91;50.67;101213.19;5060260;28;45335;-62
2023/04/27 08:11:53;;;;;;;;;9.75;9.75;;;;;14.94;50.47;101214.00;5061011;28;45430;-62
2023/04/27 08:14:18;;;;;;;;;9.75;9.75;;;;;14.99;50.91;101213.88;5060816;28;45359;-62
2023/04/27 08:16:43;;;;;;;;;9.25;8.50;;;;;15.05;50.35;101221.66;5060817;28;45434;-62
2023/04/27 08:19:10;;;;;;;;;9.50;7.50;;;;;15.09;50.28;101225.09;5060386;28;45410;-62
2023/04/27 08:21:36;;;;;;;;;8.00;7.25;;;;;15.13;50.45;101213.50;5060928;28;45367;-62
2023/04/27 08:24:03;;;;;;;;;9.50;7.75;;;;;15.16;50.24;101217.88;5042315;28;45576;-63
2023/04/27 08:26:28;;;;;;;;;8.25;7.50;;;;;15.22;50.58;101221.22;5042669;28;45272;-62
2023/04/27 08:28:55;;;;;;;;;10.00;8.00;;;;;15.24;50.79;101216.78;5060276;28;45445;-62
2023/04/27 08:31:21;;;;;;;;;7.50;6.25;;;;;15.27;50.61;101205.25;5042540;28;45341;-62
2023/04/27 08:33:46;;;;;;;;;8.00;8.00;;;;;15.34;50.66;101200.63;5041954;28;45366;-62
2023/04/27 08:36:15;;;;;;;;;14.75;10.50;;;;;15.38;50.57;101191.69;5060064;28;45236;-63
2023/04/27 08:38:40;;;;;;;;;8.75;8.75;;;;;15.42;50.22;101193.34;5059878;28;45360;-63
2023/04/27 08:41:05;;;;;;;;;7.25;7.25;;;;;15.45;50.46;101193.28;5060076;28;46474;-62
2023/04/27 08:43:34;;;;;;;;;8.50;8.50;;;;;15.50;49.96;101186.06;5042628;28;45273;-63
2023/04/27 08:46:00;;;;;;;;;11.25;8.25;;;;;15.48;50.52;101185.22;5042341;28;45398;-63
2023/04/27 08:48:25;;;;;;;;;8.50;8.50;;;;;15.53;50.38;101191.25;5059993;28;46348;-63
2023/04/27 08:50:52;;;;;;;;;9.25;7.25;;;;;15.60;50.01;101187.53;5060540;28;45216;-63
2023/04/27 08:53:21;;;;;;;;;6.50;6.25;;;;;15.64;50.29;101193.63;5060109;28;45477;-60
2023/04/27 08:55:48;;;;;;;;;8.25;7.50;;;;;15.69;49.95;101193.50;5060184;28;45344;-62
2023/04/27 08:58:13;;;;;;;;;8.50;8.50;;;;;15.76;50.22;101195.94;5059886;28;46241;-62
2023/04/27 09:00:43;;;;;;;;;9.00;8.00;;;;;15.82;49.94;101188.75;5060108;28;45735;-62
2023/04/27 09:03:18;;;;;;;;;7.25;6.00;;;;;15.85;49.92;101181.59;5060283;28;45323;-62
2023/04/27 09:05:47;;;;;;;;;7.75;6.25;;;;;15.92;49.74;101183.16;5060000;28;45273;-62
2023/04/27 09:08:13;;;;;;;;;10.00;7.25;;;;;15.96;50.25;101177.75;5059544;28;47082;-63
2023/04/27 09:10:53;;;;;;;;;11.50;8.00;;;;;16.02;50.06;101174.91;5059793;28;45146;-62
2023/04/27 09:13:19;;;;;;;;;8.00;8.00;;;;;16.08;49.97;101182.69;5060183;28;45273;-63
2023/04/27 09:15:47;;;;;;;;;10.25;7.50;;;;;16.12;49.87;101181.66;5041669;28;45364;-63
2023/04/27 09:18:17;;;;;;;;;6.75;6.75;;;;;16.19;50.05;101177.91;5059890;28;46509;-62
2023/04/27 09:20:52;;;;;;;;;7.25;6.75;;;;;16.24;49.91;101183.94;5059629;28;45486;-62
2023/04/27 09:23:30;;;;;;;;;5.00;5.00;;;;;16.32;49.55;101181.06;5059937;28;45430;-62
2023/04/27 09:25:57;;;;;;;;;8.50;8.50;;;;;16.39;49.78;101192.34;5041517;28;45529;-63
2023/04/27 09:28:26;;;;;;;;;10.00;7.50;;;;;16.44;49.75;101184.22;5059549;28;45405;-62
2023/04/27 09:30:57;;;;;;;;;7.00;6.00;;;;;16.52;49.69;101190.19;5041896;28;45387;-62
2023/04/27 09:33:28;;;;;;;;;7.00;5.75;;;;;16.58;49.37;101190.84;5059787;28;45309;-62
2023/04/27 09:35:55;;;;;;;;;11.25;8.75;;;;;16.67;49.78;101184.38;5057896;28;45669;-63
2023/04/27 09:38:21;;;;;;;;;5.00;5.00;;;;;16.74;49.11;101183.25;5059103;28;46299;-62
2023/04/27 09:40:48;;;;;;;;;7.25;5.00;;;;;16.79;49.69;101176.91;5059330;28;45403;-62
2023/04/27 09:43:14;;;;;;;;;5.50;5.25;;;;;16.88;49.29;101177.47;5059656;28;45458;-60
2023/04/27 09:45:40;;;;;;;;;6.00;5.25;;;;;17.00;49.43;101193.94;5059601;28;45166;-63
2023/04/27 09:48:07;;;;;;;;;3.50;3.50;;;;;17.08;49.39;101181.28;5062288;28;46408;-63
2023/04/27 09:50:38;;;;;;;;;7.50;6.25;;;;;17.15;49.58;101182.78;5063000;28;45355;-60
2023/04/27 09:53:09;;;;;;;;;5.50;5.50;;;;;17.25;49.43;101170.06;5062922;28;45288;-60
2023/04/27 09:56:13;;;;;;;;;6.00;4.75;;;;;17.38;49.37;101168.72;5044819;28;45502;-63
2023/04/27 09:59:00;;;;;;;;;5.50;5.50;;;;;17.53;49.34;101171.72;5059733;28;45413;-63
2023/04/27 10:01:39;;;;;;;;;3.75;3.75;;;;;17.66;49.22;101172.13;5044508;28;45402;-61
2023/04/27 10:04:34;;;;;;;;;7.50;5.25;;;;;17.84;49.79;101170.59;5062588;28;45312;-61
2023/04/27 10:07:04;;;;;;;;;8.00;7.00;;;;;18.03;49.42;101173.44;5062716;28;45222;-61
2023/04/27 10:09:40;;;;;;;;;7.50;5.00;;;;;18.25;49.86;101178.81;5062280;28;45559;-61
2023/04/27 10:12:20;;;;;;;;;6.75;6.75;;;;;18.48;49.27;101172.56;5062714;28;45404;-61
2023/04/27 10:14:50;;;;;;;;;6.75;6.00;;;;;18.73;49.66;101174.22;5062875;28;45293;-62
2023/04/27 10:17:16;;;;;;;;;7.00;5.75;;;;;18.95;49.58;101166.22;5062465;28;45496;-61
2023/04/27 10:19:53;;;;;;;;;7.00;5.50;;;;;19.21;49.85;101160.72;5062533;28;45461;-62
2023/04/27 10:22:19;;;;;;;;;7.25;6.75;;;;;19.43;49.82;101161.50;5061857;28;45286;-61
2023/04/27 10:24:48;;;;;;;;;7.00;6.25;;;;;19.72;49.45;101159.31;5062588;28;45478;-61
2023/04/27 10:27:21;;;;;;;;;8.00;7.00;;;;;19.98;50.00;101154.56;5062320;28;45419;-62
2023/04/27 10:29:48;;;;;;;;;7.50;6.75;;;;;20.23;49.44;101145.41;5045118;28;45634;-62
2023/04/27 10:32:25;;;;;;;;;7.00;5.75;;;;;20.49;49.43;101143.25;5062215;28;45473;-62
2023/04/27 10:35:10;;;;;;;;;5.75;5.75;;;;;20.78;49.38;101137.34;5062451;28;45269;-62
2023/04/27 10:37:41;;;;;;;;;5.75;5.00;;;;;21.02;49.69;101137.03;5043449;28;45918;-62
2023/04/27 10:40:13;;;;;;;;;5.50;5.50;;;;;21.31;49.60;101140.00;5061947;28;46185;-61
2023/04/27 10:42:39;;;;;;;;;7.50;5.75;;;;;21.57;49.55;101143.97;5062296;28;45254;-62
2023/04/27 10:45:05;;;;;;;;;5.75;5.75;;;;;21.88;49.45;101144.09;5062258;28;45459;-62
2023/04/27 10:47:42;;;;;;;;;7.50;7.00;;;;;22.23;49.43;101157.31;5062277;28;45299;-62
2023/04/27 10:50:12;;;;;;;;;6.00;6.00;;;;;22.53;49.04;101151.19;5061969;28;46146;-62
2023/04/27 10:52:42;;;;;;;;;7.50;7.00;;;;;22.83;48.90;101145.84;5061840;28;45338;-62
2023/04/27 10:55:15;;;;;;;;;7.25;5.75;;;;;23.16;48.93;101149.28;5062211;28;45246;-61
2023/04/27 10:57:48;;;;;;;;;5.50;4.50;;;;;23.46;48.88;101151.03;5061464;28;45255;-61
2023/04/27 11:00:21;;;;;;;;;6.25;6.25;;;;;23.76;48.74;101152.75;5061625;28;47017;-61
2023/04/27 11:02:46;;;;;;;;;8.25;7.00;;;;;24.01;48.61;101149.38;5043430;28;45402;-61
2023/04/27 11:05:21;;;;;;;;;7.50;7.25;;;;;24.22;48.47;101144.44;5061904;28;45295;-61
2023/04/27 11:07:47;;;;;;;;;6.00;6.00;;;;;24.45;47.96;101147.44;5042666;28;45549;-62
2023/04/27 11:10:19;;;;;;;;;7.00;7.00;;;;;24.62;47.65;101139.09;5061472;28;45317;-61
2023/04/27 11:12:45;;;;;;;;;8.75;6.00;;;;;24.78;47.86;101136.28;5042674;28;45354;-62